Gorno-Altaysk, Russia
Current Conditions -  °F | °C
As of 1:30 PM on Thursday 23 Oct 2014 (Local Time) from UNBB Reporting Station
Clear Clear  
Wind Chill: 34°   Ceiling: Unl
Heat Index: 41°   Visibility: 6mi
Dew Point: 32°   Wind: 11mph
Humidity: 70%   Direction: 180°S
Pressure: 29.88"   Gusts: NA
Location:  51.96°N, 85.96°E
Report Text: UNBB 230630Z 18005MPS CAVOK 05/00 Q1012 NOSIG RMK QFE737/098224190058
Loading
Personal Weather Stations






























Interactive Weather Map New forecast layout! Learn more

10-Day Weather Forecast

Advertisements
Track Severe Weather on mobile